Time;durP1;ratioP1;P1;durP2;ratioP2;P2;SDS_P1;SDS_P2;PMS_P1;PMS_P2;Temp;Humidity;BMP_temperature;BMP_pressure;BME280_temperature;BME280_humidity;BME280_pressure;Samples;Min_cycle;Max_cycle;Signal;HPM_P1;HPM_P2
2022/01/11 00:01:07;;;;;;;0.10;0.10;;;4.20;99.90;230.40;228845.00;;;;5054277;28;20202;-75
2022/01/11 00:03:38;;;;;;;0.10;0.10;;;4.10;99.90;230.40;228845.00;;;;5054555;28;20194;-75
2022/01/11 00:06:19;;;;;;;0.10;0.10;;;4.20;99.90;230.40;228845.00;;;;5051342;28;20670;-75
2022/01/11 00:08:49;;;;;;;0.10;0.10;;;4.20;99.90;230.40;228845.00;;;;5053064;28;20635;-74
2022/01/11 00:11:16;;;;;;;0.10;0.10;;;4.10;99.90;230.40;228845.00;;;;5053059;28;20198;-74
2022/01/11 00:13:44;;;;;;;0.10;0.10;;;4.10;99.90;230.40;228845.00;;;;5052590;28;20680;-74
2022/01/11 00:16:14;;;;;;;0.10;0.10;;;4.20;99.90;230.40;228845.00;;;;5052638;28;20190;-74
2022/01/11 00:18:42;;;;;;;0.10;0.10;;;4.20;99.90;230.40;228845.00;;;;5053131;28;20233;-73
2022/01/11 00:21:11;;;;;;;0.10;0.10;;;4.20;99.90;230.40;228845.00;;;;5052358;28;20194;-73
2022/01/11 00:26:25;;;;;;;0.10;0.10;;;4.10;99.90;230.40;228845.00;;;;5053248;28;20206;-73
2022/01/11 00:28:52;;;;;;;0.10;0.10;;;4.10;99.90;230.40;228845.00;;;;5052867;28;20202;-73
2022/01/11 00:31:30;;;;;;;0.10;0.10;;;4.10;99.90;230.40;228845.00;;;;5033495;28;20324;-73
2022/01/11 00:34:00;;;;;;;0.10;0.10;;;4.10;99.90;230.40;228845.00;;;;5051588;28;20186;-73
2022/01/11 00:36:40;;;;;;;0.10;0.10;;;4.10;99.90;230.40;228845.00;;;;5049931;28;20260;-73
2022/01/11 00:39:09;;;;;;;0.10;0.10;;;4.10;99.90;230.40;228845.00;;;;5032595;28;20229;-74
2022/01/11 00:41:39;;;;;;;0.10;0.10;;;4.10;99.90;230.40;228845.00;;;;5033224;28;20194;-72
2022/01/11 00:44:08;;;;;;;0.10;0.10;;;4.10;99.90;230.40;228845.00;;;;5051071;28;20248;-73
2022/01/11 00:46:40;;;;;;;0.10;0.10;;;4.10;99.90;230.40;228845.00;;;;5033175;28;20261;-73
2022/01/11 00:49:08;;;;;;;0.10;0.10;;;4.00;99.90;230.40;228845.00;;;;5032817;28;20241;-74
2022/01/11 00:51:36;;;;;;;0.10;0.10;;;4.00;99.90;230.40;228845.00;;;;5032083;28;20202;-73
2022/01/11 00:54:09;;;;;;;0.10;0.10;;;4.00;99.90;230.40;228845.00;;;;5066154;28;20191;-74
2022/01/11 00:56:37;;;;;;;0.10;0.10;;;4.00;99.90;230.40;228845.00;;;;5051020;28;20194;-74
2022/01/11 00:59:05;;;;;;;0.10;0.10;;;4.00;99.90;230.40;228845.00;;;;5033531;28;20222;-74
2022/01/11 01:01:37;;;;;;;0.10;0.10;;;4.00;99.90;230.40;228845.00;;;;5034251;28;20281;-73
2022/01/11 01:04:09;;;;;;;0.10;0.10;;;4.00;99.90;230.40;228845.00;;;;5051159;28;20224;-74
2022/01/11 01:06:39;;;;;;;0.10;0.10;;;4.00;99.90;230.40;228845.00;;;;5032067;28;20206;-74
2022/01/11 01:09:11;;;;;;;0.10;0.10;;;4.00;99.90;230.40;228845.00;;;;5032855;28;20355;-77
2022/01/11 01:11:44;;;;;;;0.10;0.10;;;4.00;99.90;230.40;228845.00;;;;5032486;28;20276;-73
2022/01/11 01:14:13;;;;;;;0.10;0.10;;;4.00;99.90;230.40;228845.00;;;;5032384;28;20568;-74
2022/01/11 01:16:42;;;;;;;0.10;0.10;;;4.00;99.90;230.40;228845.00;;;;5032553;28;20195;-74
2022/01/11 01:19:29;;;;;;;0.10;0.10;;;4.00;99.90;230.40;228845.00;;;;5032196;28;20323;-75
2022/01/11 01:21:58;;;;;;;0.10;0.10;;;4.00;99.90;230.40;228845.00;;;;5050062;28;20198;-74
2022/01/11 01:24:27;;;;;;;0.10;0.10;;;4.00;99.90;230.40;228845.00;;;;5051421;28;20194;-73
2022/01/11 01:26:55;;;;;;;0.10;0.10;;;4.00;99.90;230.40;228845.00;;;;5069254;28;20194;-73
2022/01/11 01:29:23;;;;;;;0.10;0.10;;;4.00;99.90;230.40;228845.00;;;;5055880;28;20237;-73
2022/01/11 01:31:51;;;;;;;0.10;0.10;;;4.00;99.90;230.40;228845.00;;;;5066423;28;20284;-71
2022/01/11 01:34:19;;;;;;;0.10;0.10;;;4.00;99.90;230.40;228845.00;;;;5031820;28;20257;-73
2022/01/11 01:36:49;;;;;;;0.10;0.10;;;4.00;99.90;230.40;228845.00;;;;5064502;28;20202;-73
2022/01/11 01:39:17;;;;;;;0.10;0.10;;;3.90;99.90;230.40;228845.00;;;;5064978;28;20233;-73
2022/01/11 01:41:46;;;;;;;0.10;0.10;;;3.90;99.90;230.40;228845.00;;;;5038180;28;20194;-73
2022/01/11 01:44:15;;;;;;;0.10;0.10;;;3.90;99.90;230.40;228845.00;;;;5032331;28;20190;-74
2022/01/11 01:46:43;;;;;;;0.10;0.10;;;4.00;99.90;230.40;228845.00;;;;5055297;28;20680;-73
2022/01/11 01:49:17;;;;;;;0.10;0.10;;;4.00;99.90;230.40;228845.00;;;;5056086;28;21157;-73
2022/01/11 01:51:46;;;;;;;0.10;0.10;;;4.00;99.90;230.40;228845.00;;;;5037082;28;20198;-73
2022/01/11 01:54:17;;;;;;;0.10;0.10;;;4.00;99.90;230.40;228845.00;;;;5068337;28;20233;-74
2022/01/11 01:56:46;;;;;;;0.10;0.10;;;4.00;99.90;230.40;228845.00;;;;5050443;28;20202;-73
2022/01/11 01:59:15;;;;;;;0.10;0.10;;;4.00;99.90;230.40;228845.00;;;;5032703;28;20221;-75
2022/01/11 02:01:46;;;;;;;0.10;0.10;;;4.00;99.90;230.40;228845.00;;;;5032401;28;20672;-74
2022/01/11 02:04:17;;;;;;;0.10;0.10;;;4.00;99.90;230.40;228845.00;;;;5032947;28;20245;-73
2022/01/11 02:06:46;;;;;;;0.10;0.10;;;4.00;99.90;230.40;228845.00;;;;5032666;28;20194;-72
2022/01/11 02:09:17;;;;;;;0.10;0.10;;;4.00;99.90;230.40;228845.00;;;;5051118;28;20309;-72
2022/01/11 02:11:48;;;;;;;0.10;0.10;;;4.00;99.90;230.40;228845.00;;;;5031909;28;20201;-71
2022/01/11 02:14:18;;;;;;;0.10;0.10;;;4.00;99.90;230.40;228845.00;;;;5064067;28;20606;-71
2022/01/11 02:16:48;;;;;;;0.10;0.10;;;4.00;99.90;230.40;228845.00;;;;5049540;28;20701;-71
2022/01/11 02:19:16;;;;;;;0.10;0.10;;;4.00;99.90;230.40;228845.00;;;;5064948;28;20210;-72
2022/01/11 02:21:45;;;;;;;0.10;0.10;;;4.00;99.90;230.40;228845.00;;;;5049767;28;20441;-72
2022/01/11 02:24:15;;;;;;;0.10;0.10;;;3.90;99.90;230.40;228845.00;;;;5032297;28;20536;-72
2022/01/11 02:26:43;;;;;;;0.10;0.10;;;3.90;99.90;230.40;228845.00;;;;5064114;28;20281;-71
2022/01/11 02:29:12;;;;;;;0.10;0.10;;;3.90;99.90;230.40;228845.00;;;;5064267;28;20220;-72
2022/01/11 02:31:42;;;;;;;0.10;0.10;;;3.90;99.90;230.40;228845.00;;;;5064804;28;20194;-72
2022/01/11 02:34:12;;;;;;;0.10;0.10;;;3.90;99.90;230.40;228845.00;;;;5031353;28;20218;-72
2022/01/11 02:37:08;;;;;;;0.10;0.10;;;3.80;99.90;230.40;228845.00;;;;5045869;28;20669;-72
2022/01/11 02:39:40;;;;;;;0.10;0.10;;;3.90;99.90;230.40;228845.00;;;;5049789;28;20209;-72
2022/01/11 02:42:21;;;;;;;0.10;0.10;;;3.90;99.90;230.40;228845.00;;;;5064346;28;20209;-72
2022/01/11 02:44:50;;;;;;;0.10;0.10;;;3.90;99.90;230.40;228845.00;;;;5031666;28;20260;-72
2022/01/11 02:47:21;;;;;;;0.10;0.10;;;3.90;99.90;230.40;228845.00;;;;5049603;28;20708;-73
2022/01/11 02:49:52;;;;;;;0.10;0.10;;;4.00;99.90;230.40;228845.00;;;;5030957;28;20226;-74
2022/01/11 02:52:26;;;;;;;0.10;0.10;;;4.00;99.90;230.40;228845.00;;;;5031106;28;20286;-75
2022/01/11 02:55:06;;;;;;;0.10;0.10;;;4.00;99.90;230.40;228845.00;;;;5065051;28;20206;-72
2022/01/11 02:57:36;;;;;;;0.10;0.10;;;4.00;99.90;230.40;228845.00;;;;5031222;28;20654;-73
2022/01/11 03:00:20;;;;;;;0.10;0.10;;;4.10;99.90;230.40;228845.00;;;;5031538;28;20239;-73
2022/01/11 03:02:48;;;;;;;0.10;0.10;;;4.00;99.90;230.40;228845.00;;;;5031247;28;20296;-73
2022/01/11 03:05:22;;;;;;;0.10;0.10;;;4.00;99.90;230.40;228845.00;;;;5047071;28;20194;-71
2022/01/11 03:07:54;;;;;;;0.10;0.10;;;3.90;99.90;230.40;228845.00;;;;5029797;28;20194;-71
2022/01/11 03:10:32;;;;;;;0.10;0.10;;;3.90;99.90;230.40;228845.00;;;;5030546;28;20234;-74
2022/01/11 03:13:04;;;;;;;0.10;0.10;;;3.90;99.90;230.40;228845.00;;;;5064412;28;20187;-72
2022/01/11 03:15:34;;;;;;;0.10;0.10;;;3.90;99.90;230.40;228845.00;;;;5030126;28;20199;-73
2022/01/11 03:18:07;;;;;;;0.10;0.10;;;4.00;99.90;230.40;228845.00;;;;5031501;28;20190;-73
2022/01/11 03:20:44;;;;;;;0.10;0.10;;;4.00;99.90;230.40;228845.00;;;;5031533;28;20194;-72
2022/01/11 03:23:16;;;;;;;0.10;0.10;;;4.00;99.90;230.40;228845.00;;;;5032137;28;20615;-72
2022/01/11 03:25:46;;;;;;;0.10;0.10;;;4.00;99.90;230.40;228845.00;;;;5033778;28;20197;-71
2022/01/11 03:28:16;;;;;;;0.10;0.10;;;4.10;99.90;230.40;228845.00;;;;5039475;28;20218;-72
2022/01/11 03:30:45;;;;;;;0.10;0.10;;;4.10;99.90;230.40;228845.00;;;;5042096;28;20207;-72
2022/01/11 03:33:13;;;;;;;0.10;0.10;;;4.10;99.90;230.40;228845.00;;;;5048504;28;20205;-71
2022/01/11 03:35:45;;;;;;;0.10;0.10;;;4.10;99.90;230.40;228845.00;;;;5048676;28;20194;-72
2022/01/11 03:38:16;;;;;;;0.10;0.10;;;4.10;99.90;230.40;228845.00;;;;5047947;28;20214;-72
2022/01/11 03:40:51;;;;;;;0.10;0.10;;;4.10;99.90;230.40;228845.00;;;;5047595;28;20194;-72
2022/01/11 03:43:22;;;;;;;0.10;0.10;;;4.10;99.90;230.40;228845.00;;;;5046223;28;20690;-72
2022/01/11 03:45:51;;;;;;;0.10;0.10;;;4.10;99.90;230.40;228845.00;;;;5034603;28;20705;-73
2022/01/11 03:48:21;;;;;;;0.10;0.10;;;4.10;99.90;230.40;228845.00;;;;5033534;28;20844;-73
2022/01/11 03:50:53;;;;;;;0.10;0.10;;;4.10;99.90;230.40;228845.00;;;;5033237;28;20191;-73
2022/01/11 03:53:49;;;;;;;0.10;0.10;;;4.10;99.90;230.40;228845.00;;;;5033795;28;20194;-72
2022/01/11 03:56:26;;;;;;;0.10;0.10;;;4.00;99.90;230.40;228845.00;;;;5033849;28;20194;-73
2022/01/11 03:59:06;;;;;;;0.10;0.10;;;4.00;99.90;230.40;228845.00;;;;5067402;28;20218;-73
2022/01/11 04:01:35;;;;;;;0.10;0.10;;;4.00;99.90;230.40;228845.00;;;;5033789;28;20194;-72
2022/01/11 04:04:05;;;;;;;0.10;0.10;;;4.00;99.90;230.40;228845.00;;;;5033918;28;20198;-72
2022/01/11 04:06:34;;;;;;;0.10;0.10;;;4.00;99.90;230.40;228845.00;;;;5066746;28;20206;-72
2022/01/11 04:09:05;;;;;;;0.10;0.10;;;4.00;99.90;230.40;228845.00;;;;5065179;28;20226;-72
2022/01/11 04:11:35;;;;;;;0.10;0.10;;;4.00;99.90;230.40;228845.00;;;;5032370;28;20194;-72
2022/01/11 04:14:03;;;;;;;0.10;0.10;;;4.00;99.90;230.40;228845.00;;;;5032149;28;20202;-72
2022/01/11 04:16:31;;;;;;;0.10;0.10;;;4.00;99.90;230.40;228845.00;;;;5050865;28;20222;-73
2022/01/11 04:19:02;;;;;;;0.10;0.10;;;4.00;99.90;230.40;228845.00;;;;5050196;28;20210;-72
2022/01/11 04:21:30;;;;;;;0.10;0.10;;;4.00;99.90;230.40;228845.00;;;;5066432;28;20226;-72
2022/01/11 04:24:00;;;;;;;0.10;0.10;;;4.00;99.90;230.40;228845.00;;;;5032917;28;20205;-72
2022/01/11 04:26:29;;;;;;;0.10;0.10;;;4.00;99.90;230.40;228845.00;;;;5065533;28;20201;-72
2022/01/11 04:29:04;;;;;;;0.10;0.10;;;3.90;99.90;230.40;228845.00;;;;5033254;28;20608;-72
2022/01/11 04:31:33;;;;;;;0.10;0.10;;;3.90;99.90;230.40;228845.00;;;;5032531;28;20195;-72
2022/01/11 04:34:07;;;;;;;0.10;0.10;;;3.90;99.90;230.40;228845.00;;;;5068039;28;20194;-74
2022/01/11 04:36:36;;;;;;;0.10;0.10;;;3.90;99.90;230.40;228845.00;;;;5064876;28;20195;-75
2022/01/11 04:39:08;;;;;;;0.10;0.10;;;3.90;99.90;230.40;228845.00;;;;5032857;28;20681;-75
2022/01/11 04:41:40;;;;;;;0.10;0.10;;;4.00;99.90;230.40;228845.00;;;;5070165;28;20195;-75
2022/01/11 04:44:09;;;;;;;0.10;0.10;;;3.90;99.90;230.40;228845.00;;;;5035139;28;20201;-74
2022/01/11 04:46:38;;;;;;;0.10;0.10;;;3.90;99.90;230.40;228845.00;;;;5032526;28;20240;-74
2022/01/11 04:49:07;;;;;;;0.10;0.10;;;4.00;99.90;230.40;228845.00;;;;5064059;28;20226;-74
2022/01/11 04:51:35;;;;;;;0.10;0.10;;;4.00;99.90;230.40;228845.00;;;;5064895;28;20293;-74
2022/01/11 04:54:05;;;;;;;0.10;0.10;;;4.00;99.90;230.40;228845.00;;;;5031122;28;20305;-74
2022/01/11 04:56:34;;;;;;;0.10;0.10;;;3.90;99.90;230.40;228845.00;;;;5032369;28;20665;-73
2022/01/11 04:59:03;;;;;;;0.10;0.10;;;3.90;99.90;230.40;228845.00;;;;5065468;28;20222;-74
2022/01/11 05:01:34;;;;;;;0.10;0.10;;;3.90;99.90;230.40;228845.00;;;;5032464;28;20199;-74
2022/01/11 05:04:03;;;;;;;0.10;0.10;;;4.00;99.90;230.40;228845.00;;;;5031402;28;20289;-74
2022/01/11 05:06:31;;;;;;;0.10;0.10;;;3.90;99.90;230.40;228845.00;;;;5031644;28;20195;-74
2022/01/11 05:08:59;;;;;;;0.10;0.10;;;4.00;99.90;230.40;228845.00;;;;5032275;28;20222;-73
2022/01/11 05:11:27;;;;;;;0.10;0.10;;;4.00;99.90;230.40;228845.00;;;;5051738;28;20205;-73
2022/01/11 05:13:56;;;;;;;0.10;0.10;;;4.00;99.90;230.40;228845.00;;;;5067514;28;20594;-73
2022/01/11 05:16:45;;;;;;;0.10;0.10;;;3.90;99.90;230.40;228845.00;;;;5067135;28;20199;-72
2022/01/11 05:19:13;;;;;;;0.10;0.10;;;4.00;99.90;230.40;228845.00;;;;5065218;28;20225;-73
2022/01/11 05:21:44;;;;;;;0.10;0.10;;;4.00;99.90;230.40;228845.00;;;;5065183;28;20222;-73
2022/01/11 05:24:13;;;;;;;0.10;0.10;;;3.90;99.90;230.40;228845.00;;;;5031566;28;20198;-72
2022/01/11 05:26:42;;;;;;;0.10;0.10;;;3.90;99.90;230.40;228845.00;;;;5031009;28;20225;-73
2022/01/11 05:29:09;;;;;;;0.10;0.10;;;3.90;99.90;230.40;228845.00;;;;5049962;28;20588;-73
2022/01/11 05:31:38;;;;;;;0.10;0.10;;;4.00;99.90;230.40;228845.00;;;;5047571;28;20198;-73
2022/01/11 05:34:07;;;;;;;0.10;0.10;;;4.00;99.90;230.40;228845.00;;;;5032163;28;20205;-73
2022/01/11 05:36:36;;;;;;;0.10;0.10;;;4.00;99.90;230.40;228845.00;;;;5031875;28;20604;-73
2022/01/11 05:39:05;;;;;;;0.10;0.10;;;4.00;99.90;230.40;228845.00;;;;5051031;28;20234;-73
2022/01/11 05:41:34;;;;;;;0.10;0.10;;;3.90;99.90;230.40;228845.00;;;;5029446;28;20225;-73
2022/01/11 05:44:02;;;;;;;0.10;0.10;;;3.90;99.90;230.40;228845.00;;;;5030931;28;20558;-73
2022/01/11 05:46:32;;;;;;;0.10;0.10;;;3.90;99.90;230.40;228845.00;;;;5063144;28;20199;-73
2022/01/11 05:49:01;;;;;;;0.10;0.10;;;3.90;99.90;230.40;228845.00;;;;5030533;28;20222;-73
2022/01/11 05:51:30;;;;;;;0.10;0.10;;;3.90;99.90;230.40;228845.00;;;;5032183;28;20218;-73
2022/01/11 05:53:59;;;;;;;0.13;0.13;;;3.90;99.90;230.40;228845.00;;;;5032229;28;20654;-73
2022/01/11 05:56:27;;;;;;;0.10;0.10;;;3.90;99.90;230.40;228845.00;;;;5032686;28;20190;-73
2022/01/11 05:58:56;;;;;;;0.10;0.10;;;3.90;99.90;230.40;228845.00;;;;5030705;28;20245;-72
2022/01/11 06:01:24;;;;;;;0.10;0.10;;;3.90;99.90;230.40;228845.00;;;;5049304;28;20610;-73
2022/01/11 06:03:53;;;;;;;0.10;0.10;;;4.00;99.90;230.40;228845.00;;;;5032363;28;20236;-73
2022/01/11 06:06:21;;;;;;;0.10;0.10;;;4.00;99.90;230.40;228845.00;;;;5064801;28;20198;-74
2022/01/11 06:08:50;;;;;;;0.10;0.10;;;3.90;99.90;230.40;228845.00;;;;5063742;28;20281;-73
2022/01/11 06:11:18;;;;;;;0.10;0.10;;;3.90;99.90;230.40;228845.00;;;;5049496;28;20225;-73
2022/01/11 06:13:50;;;;;;;0.10;0.10;;;3.90;99.90;230.40;228845.00;;;;5048439;28;20217;-73
2022/01/11 06:16:21;;;;;;;0.10;0.10;;;3.90;99.90;230.40;228845.00;;;;5030159;28;20198;-73
2022/01/11 06:18:49;;;;;;;0.10;0.10;;;3.90;99.90;230.40;228845.00;;;;5064316;28;20214;-73
2022/01/11 06:21:24;;;;;;;0.10;0.10;;;3.90;99.90;230.40;228845.00;;;;5031759;28;20198;-74
2022/01/11 06:23:54;;;;;;;0.10;0.10;;;3.90;99.90;230.40;228845.00;;;;5065880;28;20191;-73
2022/01/11 06:26:22;;;;;;;0.10;0.10;;;3.90;99.90;230.40;228845.00;;;;5030073;28;20198;-73
2022/01/11 06:28:51;;;;;;;0.10;0.10;;;3.90;99.90;230.40;228845.00;;;;5049590;28;20214;-73
2022/01/11 06:31:19;;;;;;;0.10;0.10;;;3.80;99.90;230.40;228845.00;;;;5030661;28;20218;-73
2022/01/11 06:33:48;;;;;;;0.10;0.10;;;3.90;99.90;230.40;228845.00;;;;5063062;28;20248;-75
2022/01/11 06:36:20;;;;;;;0.10;0.10;;;3.80;99.90;230.40;228845.00;;;;5064473;28;20214;-73
2022/01/11 06:38:48;;;;;;;0.10;0.10;;;3.80;99.90;230.40;228845.00;;;;5064218;28;20210;-73
2022/01/11 06:41:25;;;;;;;0.10;0.10;;;3.80;99.90;230.40;228845.00;;;;5062560;28;20209;-73
2022/01/11 06:43:54;;;;;;;0.10;0.10;;;3.90;99.90;230.40;228845.00;;;;5045896;28;20203;-72
2022/01/11 06:46:25;;;;;;;0.10;0.10;;;3.90;99.90;230.40;228845.00;;;;5031140;28;20198;-72
2022/01/11 06:48:57;;;;;;;0.10;0.10;;;3.90;99.90;230.40;228845.00;;;;5064629;28;20230;-72
2022/01/11 06:51:25;;;;;;;0.10;0.10;;;4.00;99.90;230.40;228845.00;;;;5031000;28;20249;-72
2022/01/11 06:53:53;;;;;;;0.10;0.10;;;4.00;99.90;230.40;228845.00;;;;5049970;28;20309;-73
2022/01/11 06:56:22;;;;;;;0.10;0.10;;;4.00;99.90;230.40;228845.00;;;;5030854;28;20537;-73
2022/01/11 06:58:55;;;;;;;0.10;0.10;;;4.00;99.90;230.40;228845.00;;;;5031239;28;20221;-73
2022/01/11 07:01:23;;;;;;;0.10;0.10;;;4.00;99.90;230.40;228845.00;;;;5033359;28;20268;-73
2022/01/11 07:03:58;;;;;;;0.10;0.10;;;4.00;99.90;230.40;228845.00;;;;5034920;28;20212;-73
2022/01/11 07:06:29;;;;;;;0.10;0.10;;;4.00;99.90;230.40;228845.00;;;;5034563;28;20556;-72
2022/01/11 07:08:58;;;;;;;0.10;0.10;;;4.00;99.90;230.40;228845.00;;;;5033830;28;20279;-73
2022/01/11 07:11:30;;;;;;;0.10;0.10;;;3.90;99.90;230.40;228845.00;;;;5034646;28;20248;-72
2022/01/11 07:14:04;;;;;;;0.10;0.10;;;3.80;99.90;230.40;228845.00;;;;5034292;28;20199;-73
2022/01/11 07:16:34;;;;;;;0.10;0.10;;;3.80;99.90;230.40;228845.00;;;;5034470;28;20220;-73
2022/01/11 07:19:02;;;;;;;0.10;0.10;;;3.70;99.90;230.40;228845.00;;;;5034419;28;20233;-73
2022/01/11 07:21:34;;;;;;;0.10;0.10;;;3.70;99.90;230.40;228845.00;;;;5034194;28;20201;-72
2022/01/11 07:24:06;;;;;;;0.10;0.10;;;3.70;99.90;230.40;228845.00;;;;5033067;28;20251;-73
2022/01/11 07:26:34;;;;;;;0.10;0.10;;;3.70;99.90;230.40;228845.00;;;;5033698;28;20654;-73
2022/01/11 07:29:05;;;;;;;0.10;0.10;;;3.60;99.90;230.40;228845.00;;;;5033346;28;20209;-73
2022/01/11 07:31:36;;;;;;;0.10;0.10;;;3.60;99.90;230.40;228845.00;;;;5033061;28;20218;-72
2022/01/11 07:34:06;;;;;;;0.10;0.10;;;3.60;99.90;230.40;228845.00;;;;5029223;28;20202;-73
2022/01/11 07:36:37;;;;;;;0.10;0.10;;;3.60;99.90;230.40;228845.00;;;;5033629;28;20209;-72
2022/01/11 07:39:07;;;;;;;0.10;0.10;;;3.50;99.90;230.40;228845.00;;;;5033463;28;20218;-75
2022/01/11 07:41:36;;;;;;;0.10;0.10;;;3.50;99.90;230.40;228845.00;;;;5033393;28;20202;-72
2022/01/11 07:44:15;;;;;;;0.10;0.10;;;3.50;99.90;230.40;228845.00;;;;5066822;28;20304;-72
2022/01/11 07:46:45;;;;;;;0.10;0.10;;;3.50;99.90;230.40;228845.00;;;;5066675;28;20244;-72
2022/01/11 07:49:25;;;;;;;0.10;0.10;;;3.50;99.90;230.40;228845.00;;;;5066802;28;20226;-71
2022/01/11 07:51:53;;;;;;;0.10;0.10;;;3.50;99.90;230.40;228845.00;;;;5031680;28;20898;-71
2022/01/11 07:54:22;;;;;;;0.10;0.10;;;3.50;99.90;230.40;228845.00;;;;5033802;28;20201;-72
2022/01/11 07:56:51;;;;;;;0.10;0.10;;;3.50;99.90;230.40;228845.00;;;;5033537;28;20945;-71
2022/01/11 07:59:21;;;;;;;0.10;0.10;;;3.50;99.90;230.40;228845.00;;;;5066687;28;20298;-71
2022/01/11 08:02:03;;;;;;;0.10;0.10;;;3.60;99.90;230.40;228845.00;;;;5052382;28;20199;-73
2022/01/11 08:04:34;;;;;;;0.10;0.10;;;3.60;99.90;230.40;228845.00;;;;5034467;28;20801;-72
2022/01/11 08:07:04;;;;;;;0.10;0.10;;;3.60;99.90;230.40;228845.00;;;;5033517;28;20218;-72
2022/01/11 08:09:58;;;;;;;0.10;0.10;;;3.60;99.90;230.40;228845.00;;;;5050392;28;20222;-72
2022/01/11 08:12:26;;;;;;;0.10;0.10;;;3.60;99.90;230.40;228845.00;;;;5033194;28;20553;-72
2022/01/11 08:14:55;;;;;;;0.10;0.10;;;3.60;99.90;230.40;228845.00;;;;5052126;28;20198;-72
2022/01/11 08:17:24;;;;;;;0.10;0.10;;;3.70;99.90;230.40;228845.00;;;;5032857;28;20263;-72
2022/01/11 08:19:52;;;;;;;0.10;0.10;;;3.60;99.90;230.40;228845.00;;;;5067140;28;20206;-71
2022/01/11 08:22:21;;;;;;;0.10;0.10;;;3.60;99.90;230.40;228845.00;;;;5051962;28;20187;-72
2022/01/11 08:24:54;;;;;;;0.10;0.10;;;3.60;99.90;230.40;228845.00;;;;5051263;28;20749;-71
2022/01/11 08:27:22;;;;;;;0.10;0.10;;;3.70;99.90;230.40;228845.00;;;;5031941;28;20202;-72
2022/01/11 08:29:52;;;;;;;0.10;0.10;;;3.70;99.90;230.40;228845.00;;;;5032207;28;20221;-71
2022/01/11 08:32:22;;;;;;;0.10;0.10;;;3.80;99.90;230.40;228845.00;;;;5051089;28;20225;-71
2022/01/11 08:34:50;;;;;;;0.10;0.10;;;3.70;99.90;230.40;228845.00;;;;5033755;28;20190;-71
2022/01/11 08:37:19;;;;;;;0.10;0.10;;;3.80;99.90;230.40;228845.00;;;;5049536;28;20203;-71
2022/01/11 08:39:49;;;;;;;0.10;0.10;;;3.80;99.90;230.40;228845.00;;;;5033520;28;20210;-71
2022/01/11 08:42:17;;;;;;;0.10;0.10;;;3.90;99.90;230.40;228845.00;;;;5032791;28;20212;-71
2022/01/11 08:44:49;;;;;;;0.10;0.10;;;3.90;99.90;230.40;228845.00;;;;5035042;28;20607;-72
2022/01/11 08:47:22;;;;;;;0.10;0.10;;;4.00;99.90;230.40;228845.00;;;;5032930;28;20639;-72
2022/01/11 08:49:50;;;;;;;0.10;0.10;;;4.00;99.90;230.40;228845.00;;;;5033017;28;20241;-72
2022/01/11 08:52:18;;;;;;;0.10;0.10;;;4.00;99.90;230.40;228845.00;;;;5033519;28;20214;-72
2022/01/11 08:54:46;;;;;;;0.10;0.10;;;4.00;99.90;230.40;228845.00;;;;5066294;28;20259;-72
2022/01/11 08:57:18;;;;;;;0.10;0.10;;;4.10;99.90;230.40;228845.00;;;;5033258;28;20519;-71
2022/01/11 08:59:49;;;;;;;0.10;0.10;;;4.10;99.90;230.40;228845.00;;;;5033496;28;20263;-72
2022/01/11 09:02:20;;;;;;;0.10;0.10;;;4.10;99.90;230.40;228845.00;;;;5033279;28;20260;-71
2022/01/11 09:04:52;;;;;;;0.10;0.10;;;4.10;99.90;230.40;228845.00;;;;5031228;28;20661;-71
2022/01/11 09:07:25;;;;;;;0.10;0.10;;;4.20;99.90;230.40;228845.00;;;;5032977;28;20220;-71
2022/01/11 09:09:56;;;;;;;0.10;0.10;;;4.10;99.90;230.40;228845.00;;;;5033312;28;20225;-71
2022/01/11 09:12:24;;;;;;;0.10;0.10;;;4.10;99.90;230.40;228845.00;;;;5030697;28;20225;-71
2022/01/11 09:14:53;;;;;;;0.10;0.10;;;4.20;99.90;230.40;228845.00;;;;5051420;28;20218;-71
2022/01/11 09:17:23;;;;;;;0.10;0.10;;;4.20;99.90;230.40;228845.00;;;;5032268;28;20552;-71
2022/01/11 09:19:54;;;;;;;0.10;0.10;;;4.20;99.90;230.40;228845.00;;;;5032671;28;20263;-71
2022/01/11 09:22:24;;;;;;;0.10;0.10;;;4.20;99.90;230.40;228845.00;;;;5032288;28;20625;-71
2022/01/11 09:24:55;;;;;;;0.10;0.10;;;4.20;99.90;230.40;228845.00;;;;5032555;28;20384;-71
2022/01/11 09:27:27;;;;;;;0.10;0.10;;;4.20;99.90;230.40;228845.00;;;;5032345;28;20198;-71
2022/01/11 09:30:03;;;;;;;0.10;0.10;;;4.20;99.90;230.40;228845.00;;;;5032440;28;20236;-71
2022/01/11 09:32:34;;;;;;;0.10;0.10;;;4.20;99.90;230.40;228845.00;;;;5032711;28;20249;-71
2022/01/11 09:35:07;;;;;;;0.10;0.10;;;4.20;99.90;230.40;228845.00;;;;5033344;28;20198;-72
2022/01/11 09:37:38;;;;;;;0.10;0.10;;;4.20;99.90;230.40;228845.00;;;;5065292;28;20196;-73
2022/01/11 09:40:09;;;;;;;0.10;0.10;;;4.20;99.90;230.40;228845.00;;;;5032097;28;20701;-73
2022/01/11 09:42:40;;;;;;;0.10;0.10;;;4.20;99.90;230.40;228845.00;;;;5032113;28;20195;-73
2022/01/11 09:45:13;;;;;;;0.10;0.10;;;4.30;99.90;230.40;228845.00;;;;5050110;28;20187;-73
2022/01/11 09:47:47;;;;;;;0.10;0.10;;;4.30;99.90;230.40;228845.00;;;;5032629;28;20198;-74
2022/01/11 09:50:20;;;;;;;0.10;0.10;;;4.40;99.90;230.40;228845.00;;;;5032380;28;20387;-73
2022/01/11 09:53:00;;;;;;;0.10;0.10;;;4.40;99.90;230.40;228845.00;;;;5065151;28;20224;-73
2022/01/11 09:55:31;;;;;;;0.10;0.10;;;4.50;99.90;230.40;228845.00;;;;5032687;28;20198;-75
2022/01/11 09:58:01;;;;;;;0.10;0.10;;;4.50;99.90;230.40;228845.00;;;;5032866;28;20218;-75
2022/01/11 10:00:58;;;;;;;0.10;0.10;;;4.60;99.90;230.40;228845.00;;;;5013516;28;20661;-73
2022/01/11 10:03:59;;;;;;;0.10;0.10;;;4.60;99.90;230.40;228845.00;;;;5066110;28;20202;-73
2022/01/11 10:06:43;;;;;;;0.10;0.10;;;4.60;99.90;230.40;228845.00;;;;5034006;28;20186;-73
2022/01/11 10:09:17;;;;;;;0.10;0.10;;;4.60;99.90;230.40;228845.00;;;;5065623;28;20222;-74
2022/01/11 10:11:49;;;;;;;0.10;0.10;;;4.60;99.90;230.40;228845.00;;;;5031870;28;20208;-73
2022/01/11 10:14:26;;;;;;;0.10;0.10;;;4.60;99.90;230.40;228845.00;;;;5032236;28;20202;-73
2022/01/11 10:17:15;;;;;;;0.10;0.10;;;4.60;99.90;230.40;228845.00;;;;5032155;28;20202;-73
2022/01/11 10:19:48;;;;;;;0.10;0.10;;;4.60;99.90;230.40;228845.00;;;;5032403;28;20218;-73
2022/01/11 10:22:23;;;;;;;0.10;0.10;;;4.50;99.90;230.40;228845.00;;;;5033090;28;20234;-73
2022/01/11 10:24:54;;;;;;;0.10;0.10;;;4.50;99.90;230.40;228845.00;;;;5051477;28;20259;-73
2022/01/11 10:27:34;;;;;;;0.10;0.10;;;4.50;99.90;230.40;228845.00;;;;5055840;28;20273;-74
2022/01/11 10:30:08;;;;;;;0.10;0.10;;;4.50;99.90;230.40;228845.00;;;;5036602;28;20214;-74
2022/01/11 10:32:39;;;;;;;0.10;0.10;;;4.60;99.90;230.40;228845.00;;;;5068439;28;20752;-74
2022/01/11 10:35:23;;;;;;;0.10;0.10;;;4.60;99.90;230.40;228845.00;;;;5038241;28;20244;-74
2022/01/11 10:38:29;;;;;;;0.10;0.10;;;4.60;99.90;230.40;228845.00;;;;5041471;28;20612;-74
2022/01/11 10:41:45;;;;;;;0.10;0.10;;;4.70;99.90;230.40;228845.00;;;;5044815;28;20201;-74
2022/01/11 10:44:54;;;;;;;0.10;0.10;;;4.70;99.90;230.40;228845.00;;;;5036368;28;20209;-73
2022/01/11 10:47:31;;;;;;;0.10;0.10;;;4.80;99.90;230.40;228845.00;;;;5034517;28;20190;-74
2022/01/11 10:50:06;;;;;;;0.10;0.10;;;4.80;99.90;230.40;228845.00;;;;5035979;28;20233;-74
2022/01/11 10:52:35;;;;;;;0.10;0.10;;;4.90;99.90;230.40;228845.00;;;;5069400;28;20214;-74
2022/01/11 10:55:17;;;;;;;0.10;0.10;;;4.90;99.90;230.40;228845.00;;;;5035771;28;20205;-73
2022/01/11 10:57:51;;;;;;;0.10;0.10;;;4.90;99.90;230.40;228845.00;;;;5069318;28;20711;-74
2022/01/11 11:00:31;;;;;;;0.10;0.10;;;5.00;99.90;230.40;228845.00;;;;5037558;28;20279;-74
2022/01/11 11:03:04;;;;;;;0.10;0.10;;;5.00;99.90;230.40;228845.00;;;;5037636;28;20205;-74
2022/01/11 11:05:36;;;;;;;0.10;0.10;;;5.10;99.90;230.40;228845.00;;;;5055426;28;20195;-73
2022/01/11 11:08:14;;;;;;;0.10;0.10;;;5.10;99.90;230.40;228845.00;;;;5036089;28;20190;-74
2022/01/11 11:11:01;;;;;;;0.10;0.10;;;5.10;99.90;230.40;228845.00;;;;5070423;28;20190;-73